Time;durP1;ratioP1;P1;durP2;ratioP2;P2;SDS_P1;SDS_P2;PMS_P1;PMS_P2;Temp;Humidity;BMP_temperature;BMP_pressure;BME280_temperature;BME280_humidity;BME280_pressure;Samples;Min_cycle;Max_cycle;Signal;HPM_P1;HPM_P2
2021/08/13 00:00:48;;;;;;;14.07;12.57;;;18.10;99.90;;;;;;5040827;28;20203;-66
2021/08/13 00:03:14;;;;;;;13.33;11.97;;;18.10;99.90;;;;;;5037917;28;20203;-67
2021/08/13 00:05:40;;;;;;;13.77;12.37;;;18.10;99.90;;;;;;5033349;28;20168;-68
2021/08/13 00:08:06;;;;;;;12.70;11.40;;;18.10;99.90;;;;;;5032522;28;20281;-68
2021/08/13 00:10:32;;;;;;;13.70;12.20;;;18.00;99.90;;;;;;5032581;28;20171;-68
2021/08/13 00:12:58;;;;;;;15.27;12.50;;;18.00;99.90;;;;;;5032986;28;20651;-68
2021/08/13 00:15:25;;;;;;;18.63;13.10;;;18.00;99.90;;;;;;5032914;28;20526;-68
2021/08/13 00:17:52;;;;;;;14.20;12.60;;;18.00;99.90;;;;;;5032391;28;20367;-68
2021/08/13 00:20:17;;;;;;;15.93;14.33;;;18.10;99.90;;;;;;5032498;28;20546;-68
2021/08/13 00:22:43;;;;;;;14.53;12.83;;;18.20;99.90;;;;;;5032684;28;20171;-67
2021/08/13 00:25:09;;;;;;;14.03;12.73;;;18.30;99.90;;;;;;5032727;28;20175;-67
2021/08/13 00:27:34;;;;;;;16.43;13.50;;;18.40;99.90;;;;;;5031408;28;20578;-67
2021/08/13 00:30:00;;;;;;;15.23;13.73;;;18.40;99.90;;;;;;5031303;28;20739;-68
2021/08/13 00:32:25;;;;;;;14.97;13.50;;;18.40;99.90;;;;;;5031084;28;20182;-67
2021/08/13 00:34:51;;;;;;;14.47;12.63;;;18.50;99.90;;;;;;5032486;28;20683;-68
2021/08/13 00:37:17;;;;;;;15.27;12.70;;;18.50;99.90;;;;;;5032057;28;20486;-68
2021/08/13 00:39:42;;;;;;;14.73;13.20;;;18.50;99.90;;;;;;5032083;28;20191;-67
2021/08/13 00:42:08;;;;;;;14.63;13.23;;;18.40;99.90;;;;;;5032168;28;20175;-67
2021/08/13 00:44:34;;;;;;;15.10;12.13;;;18.30;99.90;;;;;;5032199;28;20530;-67
2021/08/13 00:46:59;;;;;;;15.83;14.13;;;18.30;99.90;;;;;;5032229;28;20241;-66
2021/08/13 00:49:25;;;;;;;14.73;13.23;;;18.40;99.90;;;;;;5031470;28;20258;-68
2021/08/13 00:51:51;;;;;;;15.17;13.23;;;18.40;99.90;;;;;;5032100;28;20197;-67
2021/08/13 00:54:19;;;;;;;15.27;13.73;;;18.50;99.90;;;;;;5031670;28;20179;-67
2021/08/13 00:56:45;;;;;;;14.87;13.33;;;18.60;99.90;;;;;;5031963;28;20199;-67
2021/08/13 00:59:11;;;;;;;18.00;13.53;;;18.40;99.90;;;;;;5032179;28;20180;-67
2021/08/13 01:01:37;;;;;;;15.17;13.57;;;18.40;99.90;;;;;;5032044;28;20169;-67
2021/08/13 01:04:04;;;;;;;15.97;12.40;;;18.20;99.90;;;;;;5031664;28;20637;-68
2021/08/13 01:06:29;;;;;;;14.17;12.73;;;18.20;99.90;;;;;;5031630;28;20198;-68
2021/08/13 01:08:55;;;;;;;14.10;12.60;;;18.30;99.90;;;;;;5031732;28;20258;-68
2021/08/13 01:11:44;;;;;;;13.37;11.97;;;18.20;99.90;;;;;;5031578;28;20696;-68
2021/08/13 01:14:49;;;;;;;14.13;12.00;;;18.10;99.90;;;;;;5031570;28;20187;-67
2021/08/13 01:17:16;;;;;;;13.77;12.07;;;18.00;99.90;;;;;;5020462;28;20223;-65
2021/08/13 01:20:00;;;;;;;13.70;12.27;;;18.00;99.90;;;;;;5031479;28;20228;-67
2021/08/13 01:22:30;;;;;;;12.80;11.50;;;18.00;99.90;;;;;;5031310;28;20167;-67
2021/08/13 01:25:00;;;;;;;16.70;12.63;;;18.00;99.90;;;;;;5031768;28;20593;-67
2021/08/13 01:27:41;;;;;;;14.20;12.50;;;18.00;99.90;;;;;;5030442;28;20195;-70
2021/08/13 01:30:10;;;;;;;13.57;12.17;;;17.90;99.90;;;;;;5031373;28;20626;-68
2021/08/13 01:33:04;;;;;;;14.47;11.53;;;17.80;99.90;;;;;;5031311;28;20180;-69
2021/08/13 01:35:31;;;;;;;15.20;12.37;;;17.80;99.90;;;;;;5030696;28;20206;-67
2021/08/13 01:38:02;;;;;;;14.83;13.27;;;17.80;99.90;;;;;;5031507;28;20560;-68
2021/08/13 01:40:29;;;;;;;16.47;13.90;;;17.80;99.90;;;;;;5032673;28;20190;-69
2021/08/13 01:42:58;;;;;;;17.43;14.13;;;17.70;99.90;;;;;;5038275;28;20176;-67
2021/08/13 01:45:28;;;;;;;17.77;15.37;;;17.70;99.90;;;;;;5037778;28;20183;-69
2021/08/13 01:47:55;;;;;;;19.57;14.93;;;17.70;99.90;;;;;;5037812;28;20195;-70
2021/08/13 01:50:21;;;;;;;19.83;15.73;;;17.60;99.90;;;;;;5037481;28;20175;-70
2021/08/13 01:52:52;;;;;;;16.37;14.33;;;17.70;99.90;;;;;;5038067;28;20207;-67
2021/08/13 01:55:18;;;;;;;19.63;15.20;;;17.70;99.90;;;;;;5038022;28;20183;-66
2021/08/13 01:57:45;;;;;;;17.57;15.73;;;17.60;99.90;;;;;;5037856;28;20274;-67
2021/08/13 02:00:16;;;;;;;21.93;16.63;;;17.60;99.90;;;;;;5037378;28;20182;-69
2021/08/13 02:02:42;;;;;;;16.60;15.00;;;17.60;99.90;;;;;;5038000;28;20199;-70
2021/08/13 02:05:09;;;;;;;18.23;16.33;;;17.50;99.90;;;;;;5037723;28;20207;-67
2021/08/13 02:07:37;;;;;;;19.03;15.73;;;17.60;99.90;;;;;;5037679;28;20687;-69
2021/08/13 02:10:07;;;;;;;19.93;15.83;;;17.50;99.90;;;;;;5037108;28;20185;-69
2021/08/13 02:12:33;;;;;;;19.40;16.37;;;17.40;99.90;;;;;;5037814;28;20171;-69
2021/08/13 02:14:59;;;;;;;16.77;14.80;;;17.40;99.90;;;;;;5037638;28;20218;-68
2021/08/13 02:17:29;;;;;;;16.97;15.17;;;17.50;99.90;;;;;;5037575;28;20762;-69
2021/08/13 02:20:14;;;;;;;17.27;15.47;;;17.70;99.90;;;;;;5037103;28;20180;-67
2021/08/13 02:22:40;;;;;;;17.03;15.37;;;17.70;99.90;;;;;;5036597;28;20726;-69
2021/08/13 02:25:06;;;;;;;17.83;15.20;;;17.90;99.90;;;;;;5037501;28;20183;-69
2021/08/13 02:27:32;;;;;;;16.50;14.80;;;17.80;99.90;;;;;;5037476;28;20214;-69
2021/08/13 02:29:59;;;;;;;16.73;15.03;;;17.80;99.90;;;;;;5037016;28;20199;-69
2021/08/13 02:32:26;;;;;;;15.90;14.20;;;17.70;99.90;;;;;;5037814;28;20178;-69
2021/08/13 02:34:52;;;;;;;16.27;14.57;;;17.70;99.90;;;;;;5037479;28;20182;-69
2021/08/13 02:37:46;;;;;;;22.93;15.60;;;17.70;99.90;;;;;;5037433;28;20211;-67
2021/08/13 02:40:16;;;;;;;17.47;15.33;;;17.70;99.90;;;;;;5036827;28;20179;-67
2021/08/13 02:42:44;;;;;;;19.00;16.53;;;17.70;99.90;;;;;;5037639;28;20175;-66
2021/08/13 02:45:13;;;;;;;18.40;16.53;;;17.60;99.90;;;;;;5037305;28;20584;-67
2021/08/13 02:47:43;;;;;;;18.27;16.27;;;17.60;99.90;;;;;;5037176;28;20207;-69
2021/08/13 02:50:10;;;;;;;20.77;17.70;;;17.50;99.90;;;;;;5036900;28;20222;-68
2021/08/13 02:52:45;;;;;;;18.17;16.47;;;17.40;99.90;;;;;;5034524;28;20202;-67
2021/08/13 02:55:14;;;;;;;19.03;17.03;;;17.40;99.90;;;;;;5034173;28;20182;-67
2021/08/13 02:57:42;;;;;;;17.07;15.27;;;17.40;99.90;;;;;;5032845;28;20200;-67
2021/08/13 03:00:08;;;;;;;19.57;16.87;;;17.30;99.90;;;;;;5033520;28;20226;-69
2021/08/13 03:02:36;;;;;;;20.73;17.50;;;17.30;99.90;;;;;;5034198;28;20203;-67
2021/08/13 03:05:03;;;;;;;19.23;17.23;;;17.40;99.90;;;;;;5033994;28;20180;-69
2021/08/13 03:07:29;;;;;;;21.33;16.97;;;17.30;99.90;;;;;;5033905;28;20634;-67
2021/08/13 03:09:56;;;;;;;19.40;16.23;;;17.30;99.90;;;;;;5033562;28;20179;-69
2021/08/13 03:12:22;;;;;;;21.07;18.50;;;17.20;99.90;;;;;;5033965;28;20203;-69
2021/08/13 03:14:49;;;;;;;18.90;16.90;;;17.20;99.90;;;;;;5033773;28;20609;-69
2021/08/13 03:17:16;;;;;;;20.00;17.77;;;17.20;99.90;;;;;;5033732;28;20211;-69
2021/08/13 03:19:42;;;;;;;22.10;17.07;;;17.10;99.90;;;;;;5033564;28;20673;-69
2021/08/13 03:22:08;;;;;;;21.20;17.47;;;17.10;99.90;;;;;;5033658;28;20254;-69
2021/08/13 03:24:34;;;;;;;20.77;18.17;;;17.10;99.90;;;;;;5033541;28;20260;-69
2021/08/13 03:27:02;;;;;;;21.63;17.60;;;17.10;99.90;;;;;;5032636;28;20199;-69
2021/08/13 03:29:27;;;;;;;19.77;17.67;;;17.10;99.90;;;;;;5033318;28;20266;-69
2021/08/13 03:31:58;;;;;;;21.67;16.60;;;17.20;99.90;;;;;;5033675;28;20602;-69
2021/08/13 03:34:24;;;;;;;21.33;16.47;;;17.10;99.90;;;;;;5033587;28;20183;-69
2021/08/13 03:36:49;;;;;;;18.30;15.93;;;17.10;99.90;;;;;;5032211;28;20677;-68
2021/08/13 03:39:15;;;;;;;20.30;17.97;;;17.10;99.90;;;;;;5032911;28;20163;-68
2021/08/13 03:41:41;;;;;;;19.50;17.50;;;17.00;99.90;;;;;;5033449;28;20262;-70
2021/08/13 03:44:06;;;;;;;22.53;17.37;;;17.10;99.90;;;;;;5033125;28;20178;-69
2021/08/13 03:46:32;;;;;;;23.07;18.30;;;17.10;99.90;;;;;;5031980;28;20656;-70
2021/08/13 03:48:58;;;;;;;26.20;18.10;;;17.00;99.90;;;;;;5033263;28;20183;-69
2021/08/13 03:51:23;;;;;;;23.53;18.23;;;17.10;99.90;;;;;;5032654;28;20726;-69
2021/08/13 03:53:49;;;;;;;20.67;17.27;;;17.10;99.90;;;;;;5033056;28;20179;-69
2021/08/13 03:56:15;;;;;;;22.03;17.27;;;17.10;99.90;;;;;;5032935;28;20206;-69
2021/08/13 03:58:41;;;;;;;18.87;16.87;;;17.10;99.90;;;;;;5032665;28;20175;-69
2021/08/13 04:01:08;;;;;;;18.70;16.67;;;17.10;99.90;;;;;;5032028;28;20178;-69
2021/08/13 04:03:33;;;;;;;20.80;17.80;;;17.10;99.90;;;;;;5032632;28;20662;-69
2021/08/13 04:05:59;;;;;;;18.70;16.53;;;17.10;99.90;;;;;;5033068;28;20172;-69
2021/08/13 04:08:25;;;;;;;24.43;17.87;;;17.00;99.90;;;;;;5087641;22;20775;-67
2021/08/13 04:10:51;;;;;;;20.20;17.30;;;17.00;99.90;;;;;;5072886;28;20536;-67
2021/08/13 04:13:17;;;;;;;25.00;18.77;;;17.00;99.90;;;;;;5072464;28;20261;-67
2021/08/13 04:15:44;;;;;;;21.50;18.03;;;16.90;99.90;;;;;;5054931;28;20257;-68
2021/08/13 04:18:09;;;;;;;19.37;16.87;;;16.90;99.90;;;;;;5072224;28;20228;-68
2021/08/13 04:20:35;;;;;;;21.00;18.40;;;17.00;99.90;;;;;;5072325;28;20607;-67
2021/08/13 04:23:01;;;;;;;24.43;19.33;;;17.00;99.90;;;;;;5071206;28;20174;-68
2021/08/13 04:25:26;;;;;;;23.73;19.40;;;16.90;99.90;;;;;;5072491;28;20662;-68
2021/08/13 04:27:52;;;;;;;22.30;18.70;;;16.90;99.90;;;;;;5071306;28;20550;-68
2021/08/13 04:30:18;;;;;;;23.60;18.17;;;17.00;99.90;;;;;;5071988;28;20174;-67
2021/08/13 04:32:43;;;;;;;23.10;19.37;;;17.00;99.90;;;;;;5072278;28;20170;-68
2021/08/13 04:35:10;;;;;;;22.30;19.20;;;17.00;99.90;;;;;;5055265;28;20174;-67
2021/08/13 04:37:35;;;;;;;22.37;19.50;;;17.10;99.90;;;;;;5072444;28;20209;-67
2021/08/13 04:40:01;;;;;;;22.57;18.83;;;17.10;99.90;;;;;;5071833;28;20178;-67
2021/08/13 04:42:27;;;;;;;22.97;20.50;;;17.10;99.90;;;;;;5072342;28;20312;-68
2021/08/13 04:44:52;;;;;;;24.83;19.07;;;17.10;99.90;;;;;;5072016;28;20249;-67
2021/08/13 04:47:18;;;;;;;22.17;19.77;;;17.20;99.90;;;;;;5072110;28;20206;-68
2021/08/13 04:49:44;;;;;;;24.27;18.70;;;17.30;99.90;;;;;;5071486;28;20178;-67
2021/08/13 04:52:10;;;;;;;26.83;19.20;;;17.40;99.90;;;;;;5072223;28;20257;-67
2021/08/13 04:54:35;;;;;;;31.63;20.03;;;17.40;99.90;;;;;;5071676;28;20182;-67
2021/08/13 04:57:01;;;;;;;23.83;20.00;;;17.40;99.90;;;;;;5070344;28;20212;-67
2021/08/13 04:59:28;;;;;;;24.40;19.03;;;17.60;99.90;;;;;;5071370;28;20190;-67
2021/08/13 05:01:53;;;;;;;24.60;19.93;;;17.70;99.90;;;;;;5071870;28;20208;-67
2021/08/13 05:04:19;;;;;;;20.60;17.93;;;17.80;99.90;;;;;;5071229;28;20659;-68
2021/08/13 05:06:45;;;;;;;25.67;19.13;;;17.90;99.90;;;;;;5071760;28;20257;-68
2021/08/13 05:09:10;;;;;;;24.07;19.23;;;18.00;99.90;;;;;;5071676;28;20174;-68
2021/08/13 05:11:36;;;;;;;23.10;17.33;;;18.10;99.90;;;;;;5071400;28;20197;-68
2021/08/13 05:14:03;;;;;;;19.07;17.03;;;18.20;99.90;;;;;;5071474;28;20726;-68
2021/08/13 05:16:29;;;;;;;23.43;17.57;;;18.30;99.90;;;;;;5071031;28;20293;-68
2021/08/13 05:18:54;;;;;;;25.00;17.80;;;18.40;99.90;;;;;;5071636;28;20229;-67
2021/08/13 05:21:20;;;;;;;19.27;17.20;;;18.50;99.90;;;;;;5071300;28;20537;-67
2021/08/13 05:23:46;;;;;;;18.43;16.53;;;18.70;99.90;;;;;;5071489;28;20260;-67
2021/08/13 05:26:11;;;;;;;19.07;16.13;;;18.80;99.90;;;;;;5070950;28;20547;-68
2021/08/13 05:28:37;;;;;;;17.10;15.30;;;18.90;99.90;;;;;;5069419;28;20667;-68
2021/08/13 05:31:03;;;;;;;23.37;15.63;;;19.20;99.90;;;;;;5069246;28;20210;-68
2021/08/13 05:33:29;;;;;;;17.90;14.53;;;19.30;99.90;;;;;;5071352;28;20179;-68
2021/08/13 05:35:54;;;;;;;15.50;13.23;;;19.40;99.90;;;;;;5071539;28;20216;-67
2021/08/13 05:38:20;;;;;;;15.30;13.83;;;19.60;99.90;;;;;;5070854;28;20213;-68
2021/08/13 05:40:45;;;;;;;16.23;14.17;;;19.70;99.90;;;;;;5070062;28;20181;-68
2021/08/13 05:43:11;;;;;;;15.93;14.23;;;19.70;99.90;;;;;;5071197;28;20627;-68
2021/08/13 05:45:37;;;;;;;15.20;13.73;;;19.70;99.90;;;;;;5071291;28;20178;-68
2021/08/13 05:48:03;;;;;;;20.83;15.03;;;19.70;99.90;;;;;;5071317;28;20197;-68
2021/08/13 05:50:28;;;;;;;17.13;15.40;;;19.70;99.90;;;;;;5070198;28;20186;-67
2021/08/13 05:52:55;;;;;;;18.73;14.93;;;19.70;99.90;;;;;;5070809;28;20281;-68
2021/08/13 05:55:21;;;;;;;15.83;14.33;;;19.80;99.90;;;;;;5069184;28;20189;-68
2021/08/13 05:57:46;;;;;;;16.70;14.57;;;20.00;99.90;;;;;;5071215;28;20214;-68
2021/08/13 06:00:13;;;;;;;18.03;16.33;;;20.20;99.90;;;;;;5069039;28;20224;-68
2021/08/13 06:02:53;;;;;;;14.80;13.40;;;20.40;99.90;;;;;;5071057;28;20185;-67
2021/08/13 06:05:18;;;;;;;14.43;12.93;;;20.70;99.90;;;;;;5069663;28;20273;-67
2021/08/13 06:07:44;;;;;;;14.87;13.27;;;20.90;99.90;;;;;;5070996;28;20288;-67
2021/08/13 06:10:10;;;;;;;13.70;12.40;;;21.20;99.90;;;;;;5070428;28;20186;-68
2021/08/13 06:12:35;;;;;;;13.77;12.25;;;21.50;99.90;;;;;;5070874;28;20182;-68
2021/08/13 06:15:01;;;;;;;13.10;11.40;;;21.80;99.90;;;;;;5069691;28;20182;-68
2021/08/13 06:17:33;;;;;;;13.43;11.30;;;22.10;99.90;;;;;;5070742;28;20234;-68
2021/08/13 06:19:59;;;;;;;12.43;10.75;;;22.40;99.90;;;;;;5069151;28;20185;-68
2021/08/13 06:22:24;;;;;;;14.02;10.90;;;22.70;99.90;;;;;;5070700;28;20631;-68
2021/08/13 06:24:50;;;;;;;12.38;11.25;;;22.90;99.90;;;;;;5070651;28;20225;-68
2021/08/13 06:27:15;;;;;;;13.27;11.95;;;23.00;99.90;;;;;;5071696;28;20191;-68
2021/08/13 06:29:41;;;;;;;14.98;11.25;;;22.80;99.90;;;;;;5074085;28;20265;-68
2021/08/13 06:32:07;;;;;;;14.52;11.23;;;22.80;99.90;;;;;;5074509;28;20174;-68
2021/08/13 06:34:32;;;;;;;12.55;11.25;;;22.90;99.90;;;;;;5074225;28;20189;-67
2021/08/13 06:36:58;;;;;;;17.77;13.35;;;22.90;99.90;;;;;;5074460;28;20204;-68
2021/08/13 06:39:24;;;;;;;16.10;13.50;;;22.70;99.90;;;;;;5073974;28;20193;-67
2021/08/13 06:41:49;;;;;;;16.48;13.82;;;22.40;99.90;;;;;;5074234;28;20548;-67
2021/08/13 06:44:15;;;;;;;18.85;15.52;;;22.00;99.90;;;;;;5074270;28;20209;-67
2021/08/13 06:46:41;;;;;;;16.83;14.32;;;21.60;99.90;;;;;;5073870;28;20181;-67
2021/08/13 06:49:07;;;;;;;17.50;14.80;;;21.40;99.90;;;;;;5073252;28;20594;-67
2021/08/13 06:51:33;;;;;;;17.63;15.60;;;21.10;99.90;;;;;;5073137;28;20240;-67
2021/08/13 06:53:58;;;;;;;17.20;15.50;;;21.00;99.90;;;;;;5073035;28;20218;-69
2021/08/13 06:56:24;;;;;;;20.77;16.63;;;20.90;99.90;;;;;;5073761;28;20255;-67
2021/08/13 06:58:50;;;;;;;20.90;17.83;;;20.90;99.90;;;;;;5073693;28;20196;-67
2021/08/13 07:01:15;;;;;;;20.30;18.10;;;20.90;99.90;;;;;;5073733;28;20186;-67
2021/08/13 07:03:41;;;;;;;24.33;19.33;;;21.00;99.90;;;;;;5073094;28;20641;-67
2021/08/13 07:06:06;;;;;;;27.77;21.47;;;21.00;99.90;;;;;;5073818;28;20188;-67
2021/08/13 07:08:32;;;;;;;25.47;19.80;;;20.90;99.90;;;;;;5073714;28;20209;-67
2021/08/13 07:10:58;;;;;;;26.70;20.45;;;21.00;99.90;;;;;;5073447;28;20659;-67
2021/08/13 07:13:23;;;;;;;28.30;20.47;;;21.10;99.90;;;;;;5073366;28;20178;-67
2021/08/13 07:15:49;;;;;;;25.80;21.47;;;21.20;99.90;;;;;;5073635;28;20240;-67
2021/08/13 07:18:14;;;;;;;25.60;20.65;;;21.50;99.90;;;;;;5072171;28;20275;-67
2021/08/13 07:20:40;;;;;;;24.33;18.17;;;21.70;99.90;;;;;;5073561;28;20224;-67
2021/08/13 07:23:06;;;;;;;23.30;19.20;;;22.10;99.90;;;;;;5073345;28;20174;-67
2021/08/13 07:25:31;;;;;;;22.02;18.50;;;22.50;99.90;;;;;;5072923;28;20182;-67
2021/08/13 07:27:57;;;;;;;24.10;19.98;;;23.10;99.90;;;;;;5072800;28;20269;-67
2021/08/13 07:30:23;;;;;;;22.23;19.02;;;23.30;99.90;;;;;;5072837;28;20209;-67
2021/08/13 07:32:49;;;;;;;23.77;18.60;;;23.50;99.90;;;;;;5073449;28;20206;-67
2021/08/13 07:35:15;;;;;;;25.35;20.00;;;23.70;99.90;;;;;;5073445;28;20271;-67
2021/08/13 07:37:41;;;;;;;28.52;21.40;;;23.70;99.90;;;;;;5072918;28;20220;-67
2021/08/13 07:40:07;;;;;;;22.67;19.00;;;23.80;99.90;;;;;;5071944;28;20193;-67
2021/08/13 07:42:35;;;;;;;26.77;21.23;;;24.00;99.90;;;;;;5072341;28;20185;-67
2021/08/13 07:45:01;;;;;;;26.50;22.40;;;23.90;99.90;;;;;;5072989;28;20180;-67
2021/08/13 07:47:26;;;;;;;25.20;21.08;;;23.90;99.90;;;;;;5073073;28;20629;-67
2021/08/13 07:49:52;;;;;;;26.85;22.10;;;24.00;99.90;;;;;;5072727;28;20183;-67
2021/08/13 07:52:18;;;;;;;29.50;22.42;;;24.00;99.90;;;;;;5072561;28;20265;-67
2021/08/13 07:54:43;;;;;;;30.88;24.52;;;24.00;99.90;;;;;;5073157;28;20200;-67
2021/08/13 07:57:09;;;;;;;29.58;22.88;;;23.80;99.90;;;;;;5072849;28;20632;-67
2021/08/13 07:59:35;;;;;;;31.13;23.20;;;23.80;99.90;;;;;;5072680;28;20177;-67
2021/08/13 08:02:01;;;;;;;33.10;25.55;;;24.10;99.90;;;;;;5072664;28;20170;-67
2021/08/13 08:04:27;;;;;;;29.80;23.30;;;24.10;99.90;;;;;;5072175;28;20184;-67
2021/08/13 08:06:56;;;;;;;34.97;26.38;;;24.20;99.90;;;;;;5072106;28;20194;-67
2021/08/13 08:09:24;;;;;;;33.83;25.27;;;24.10;99.90;;;;;;5061606;28;20174;-67
2021/08/13 08:11:50;;;;;;;34.28;27.30;;;23.90;99.90;;;;;;5072555;28;20665;-67
2021/08/13 08:14:16;;;;;;;32.72;24.45;;;23.30;99.90;;;;;;5072424;28;20217;-67
2021/08/13 08:16:41;;;;;;;35.60;25.52;;;23.20;99.90;;;;;;5072547;28;20230;-67
2021/08/13 08:19:07;;;;;;;34.95;24.25;;;23.20;99.90;;;;;;5060173;28;20167;-67
2021/08/13 08:21:33;;;;;;;32.03;23.73;;;23.10;99.90;;;;;;5052715;28;20220;-67
2021/08/13 08:23:59;;;;;;;30.17;22.92;;;22.90;99.90;;;;;;5068130;28;20190;-67
2021/08/13 08:26:24;;;;;;;29.77;21.75;;;22.90;99.90;;;;;;5071569;28;20642;-67
2021/08/13 08:28:51;;;;;;;29.08;21.15;;;23.10;99.90;;;;;;5072228;28;20598;-67
2021/08/13 08:31:17;;;;;;;29.23;20.40;;;23.10;99.90;;;;;;5071546;28;20239;-67
2021/08/13 08:33:42;;;;;;;27.48;20.58;;;22.90;99.90;;;;;;5072547;28;20200;-67
2021/08/13 08:36:08;;;;;;;29.13;19.58;;;22.80;99.90;;;;;;5072304;28;20185;-67
2021/08/13 08:38:34;;;;;;;26.63;20.17;;;22.90;99.90;;;;;;5071995;28;20690;-67
2021/08/13 08:41:05;;;;;;;27.52;19.38;;;23.10;99.90;;;;;;5071963;28;20178;-67
2021/08/13 08:43:31;;;;;;;29.60;20.75;;;23.20;99.90;;;;;;5072016;28;20583;-67
2021/08/13 08:45:58;;;;;;;35.67;22.35;;;23.20;99.90;;;;;;5072165;28;20174;-67
2021/08/13 08:48:27;;;;;;;26.90;20.15;;;23.20;99.90;;;;;;5071994;28;20248;-67
2021/08/13 08:50:53;;;;;;;28.08;18.73;;;23.30;99.90;;;;;;5070335;28;20163;-67
2021/08/13 08:53:23;;;;;;;25.80;18.58;;;23.60;99.90;;;;;;5069913;28;20178;-67
2021/08/13 08:55:50;;;;;;;28.83;19.70;;;23.70;99.90;;;;;;5071957;28;20162;-67
2021/08/13 08:58:18;;;;;;;25.77;19.48;;;24.00;99.90;;;;;;5071878;28;20220;-67
2021/08/13 09:00:47;;;;;;;26.27;19.50;;;24.00;99.90;;;;;;5071411;28;20189;-67
2021/08/13 09:03:14;;;;;;;26.75;19.42;;;23.90;99.90;;;;;;5072203;28;20194;-67
2021/08/13 09:05:40;;;;;;;20.92;16.15;;;23.90;99.90;;;;;;5071762;28;20169;-67
2021/08/13 09:08:06;;;;;;;15.98;13.68;;;23.90;99.90;;;;;;5071858;28;20209;-67
2021/08/13 09:10:32;;;;;;;14.88;13.07;;;24.10;99.90;;;;;;5071171;28;20170;-67
2021/08/13 09:13:04;;;;;;;12.80;11.43;;;24.70;99.90;;;;;;5071690;28;20181;-67
2021/08/13 09:15:38;;;;;;;14.02;12.23;;;25.20;99.90;;;;;;5071624;28;20174;-67
2021/08/13 09:18:22;;;;;;;10.57;9.55;;;25.50;99.90;;;;;;5071526;28;20690;-67
2021/08/13 09:20:54;;;;;;;12.55;10.13;;;26.00;99.90;;;;;;5071370;28;20178;-67
2021/08/13 09:23:40;;;;;;;10.45;9.18;;;26.20;99.90;;;;;;5070318;28;20170;-67
2021/08/13 09:26:14;;;;;;;11.07;9.93;;;26.20;99.90;;;;;;5069441;28;20178;-67
2021/08/13 09:28:44;;;;;;;10.90;9.63;;;26.20;99.90;;;;;;5071379;28;20651;-67
2021/08/13 09:31:10;;;;;;;11.75;10.50;;;26.10;99.90;;;;;;5070612;28;20166;-67
2021/08/13 09:33:36;;;;;;;10.80;9.73;;;26.10;99.90;;;;;;5071347;28;20171;-67
2021/08/13 09:36:03;;;;;;;11.48;10.38;;;26.20;99.90;;;;;;5071492;28;20236;-67
2021/08/13 09:38:28;;;;;;;13.75;10.35;;;25.90;99.90;;;;;;5071293;28;20209;-67
2021/08/13 09:41:08;;;;;;;11.18;10.07;;;25.60;99.90;;;;;;5071264;28;20162;-67
2021/08/13 09:44:00;;;;;;;11.45;10.40;;;25.70;99.90;;;;;;5071390;28;20535;-67
2021/08/13 09:46:28;;;;;;;12.65;9.95;;;26.10;99.90;;;;;;5071162;28;20582;-67
2021/08/13 09:49:11;;;;;;;11.65;10.05;;;26.40;99.90;;;;;;5071293;28;20264;-67
2021/08/13 09:51:36;;;;;;;11.63;10.43;;;26.40;99.90;;;;;;5071032;28;20173;-67
2021/08/13 09:54:04;;;;;;;14.02;10.70;;;25.90;99.90;;;;;;5071336;28;20174;-67
2021/08/13 09:56:32;;;;;;;11.35;10.18;;;26.00;99.90;;;;;;5068770;28;20182;-67
2021/08/13 09:59:11;;;;;;;17.45;11.30;;;26.60;99.90;;;;;;5071254;28;20245;-67
2021/08/13 10:01:50;;;;;;;12.07;10.75;;;27.10;99.90;;;;;;5071828;28;20703;-67
2021/08/13 10:04:17;;;;;;;11.93;10.73;;;27.50;99.90;;;;;;5075277;28;20174;-67
2021/08/13 10:06:44;;;;;;;14.07;10.38;;;27.90;99.90;;;;;;5074016;28;20178;-67
2021/08/13 10:11:37;;;;;;;13.13;10.55;;;28.50;99.90;;;;;;5053445;28;20210;-67
2021/08/13 10:14:04;;;;;;;11.38;9.60;;;28.50;99.90;;;;;;5054778;28;20185;-67
2021/08/13 10:16:30;;;;;;;10.77;9.70;;;28.50;99.90;;;;;;5054555;28;20193;-67
2021/08/13 10:18:56;;;;;;;8.68;7.88;;;28.50;99.90;;;;;;5054904;28;20193;-65
2021/08/13 10:21:26;;;;;;;9.10;8.30;;;28.70;99.90;;;;;;5053858;28;20178;-66
2021/08/13 10:23:53;;;;;;;9.02;8.23;;;28.50;99.90;;;;;;5055041;28;20191;-66
2021/08/13 10:26:23;;;;;;;9.73;8.82;;;28.40;99.90;;;;;;5054573;28;20191;-66
2021/08/13 10:28:50;;;;;;;11.02;8.50;;;28.60;99.90;;;;;;5052577;28;20229;-66
2021/08/13 10:31:18;;;;;;;10.80;9.90;;;28.40;99.90;;;;;;5053290;28;20614;-66
2021/08/13 10:33:45;;;;;;;10.68;9.73;;;28.40;99.90;;;;;;5054675;28;20163;-66
2021/08/13 10:36:15;;;;;;;8.75;7.90;;;28.40;99.90;;;;;;5053819;28;20188;-66
2021/08/13 10:38:40;;;;;;;9.05;8.15;;;28.20;99.90;;;;;;5054382;28;20226;-66
2021/08/13 10:41:08;;;;;;;10.30;9.40;;;28.30;99.90;;;;;;5052778;28;20644;-66
2021/08/13 10:43:37;;;;;;;9.27;8.48;;;28.30;99.90;;;;;;5054387;28;20170;-66
2021/08/13 10:46:05;;;;;;;7.85;7.05;;;27.60;99.90;;;;;;5054207;28;20182;-66
2021/08/13 10:48:32;;;;;;;7.93;7.22;;;27.30;99.90;;;;;;5054085;28;20595;-66
2021/08/13 10:50:59;;;;;;;8.10;7.40;;;26.90;99.90;;;;;;5053830;28;20178;-66
2021/08/13 10:53:30;;;;;;;8.75;7.95;;;26.60;99.90;;;;;;5054478;28;20179;-66
2021/08/13 10:55:58;;;;;;;8.45;6.95;;;26.50;99.90;;;;;;5054078;28;20198;-66
2021/08/13 10:58:36;;;;;;;7.68;6.97;;;26.50;99.90;;;;;;5053612;28;20198;-66
2021/08/13 11:01:20;;;;;;;7.97;6.90;;;26.10;99.90;;;;;;5050207;28;20186;-66
2021/08/13 11:03:55;;;;;;;7.57;6.93;;;26.10;99.90;;;;;;5054185;28;20202;-66
2021/08/13 11:06:41;;;;;;;6.20;5.70;;;26.20;99.90;;;;;;5053625;28;20185;-66
2021/08/13 11:09:11;;;;;;;7.13;6.53;;;26.40;99.90;;;;;;5053923;28;20630;-66
2021/08/13 11:11:51;;;;;;;6.47;5.97;;;26.50;99.90;;;;;;5052800;28;20955;-66
2021/08/13 11:14:31;;;;;;;5.80;5.30;;;26.90;99.90;;;;;;5052909;28;20598;-66
2021/08/13 11:16:57;;;;;;;6.40;5.90;;;27.60;99.90;;;;;;5053771;28;20707;-66
2021/08/13 11:19:24;;;;;;;5.13;4.72;;;28.00;99.90;;;;;;5053360;28;20253;-66
2021/08/13 11:21:59;;;;;;;6.25;5.85;;;27.70;99.90;;;;;;5053908;28;20186;-66
2021/08/13 11:24:46;;;;;;;5.25;4.85;;;27.30;99.90;;;;;;5053560;28;20166;-66
2021/08/13 11:27:12;;;;;;;5.60;5.10;;;27.10;99.90;;;;;;5033689;28;20557;-66
2021/08/13 11:29:43;;;;;;;6.20;5.60;;;27.50;99.90;;;;;;5035252;28;20641;-66
2021/08/13 11:32:14;;;;;;;5.72;5.18;;;27.60;99.90;;;;;;5049917;28;20568;-67
2021/08/13 11:34:51;;;;;;;5.60;5.20;;;27.70;99.90;;;;;;5053282;28;20651;-67
2021/08/13 11:37:28;;;;;;;5.82;5.28;;;28.00;99.90;;;;;;5053450;28;20206;-67
2021/08/13 11:39:57;;;;;;;5.72;5.32;;;28.20;99.90;;;;;;5052902;28;20170;-67
2021/08/13 11:42:24;;;;;;;5.65;5.25;;;28.20;99.90;;;;;;5053159;28;20170;-67
2021/08/13 11:44:51;;;;;;;5.68;5.28;;;28.70;99.90;;;;;;5053230;28;20604;-67
2021/08/13 11:47:18;;;;;;;5.07;4.68;;;28.50;99.90;;;;;;5053395;28;20658;-67
2021/08/13 11:49:46;;;;;;;5.20;4.80;;;28.20;99.90;;;;;;5052686;28;20170;-67
2021/08/13 11:52:11;;;;;;;5.15;4.82;;;28.00;99.90;;;;;;5053198;28;20258;-67
2021/08/13 11:54:37;;;;;;;4.90;4.60;;;28.10;99.90;;;;;;5052593;28;20261;-67
2021/08/13 11:57:23;;;;;;;5.03;4.63;;;28.10;99.90;;;;;;5052752;28;20555;-67
2021/08/13 11:59:50;;;;;;;4.57;4.20;;;28.40;99.90;;;;;;5052606;28;20174;-68
2021/08/13 12:02:30;;;;;;;4.70;4.40;;;28.30;99.90;;;;;;5053310;28;20217;-67
2021/08/13 12:05:06;;;;;;;4.43;4.13;;;28.30;99.90;;;;;;5052682;28;20197;-67
2021/08/13 12:07:32;;;;;;;4.78;4.47;;;28.90;99.90;;;;;;5052646;28;20406;-67
2021/08/13 12:09:57;;;;;;;5.40;5.10;;;28.50;99.90;;;;;;5052030;28;20608;-67
2021/08/13 12:12:29;;;;;;;5.40;5.00;;;28.50;99.90;;;;;;5052381;28;20550;-67
2021/08/13 12:14:57;;;;;;;5.32;5.03;;;28.40;99.90;;;;;;5052610;28;20232;-67
2021/08/13 12:17:23;;;;;;;5.07;4.68;;;28.70;99.90;;;;;;5052461;28;20738;-68
2021/08/13 12:19:57;;;;;;;5.63;5.25;;;28.80;99.90;;;;;;5052228;28;20171;-67
2021/08/13 12:22:33;;;;;;;5.03;4.53;;;28.80;99.90;;;;;;5052435;28;20171;-67
2021/08/13 12:25:00;;;;;;;5.10;4.70;;;28.90;99.90;;;;;;5052327;28;20262;-68
2021/08/13 12:27:33;;;;;;;4.53;4.22;;;29.10;99.90;;;;;;5052269;28;20202;-67
2021/08/13 12:29:59;;;;;;;4.50;4.20;;;29.30;99.90;;;;;;5052072;28;20189;-68
2021/08/13 12:32:35;;;;;;;4.93;4.57;;;29.10;99.90;;;;;;5052194;28;20220;-67
2021/08/13 12:35:01;;;;;;;4.18;3.90;;;29.30;99.90;;;;;;5052132;28;20205;-67
2021/08/13 12:37:27;;;;;;;5.18;4.45;;;29.50;99.90;;;;;;5051040;28;20210;-66